Terminal Aerodrome Forecast
Issued by NWS Pittsburgh, PA

Current Version | Previous Version | Text Only | Print | Product List | Glossary Off
Versions: 1 2 3 4 5 6 7 8 9 10 11 12 13 14 15 16 17 18 19 20 21 22 23 24 25 26 27 28

844
FTUS41 KPBZ 081122
TAFPIT
TAF
KPIT 081122Z 0812/0918 23005KT P6SM OVC080
     FM081400 26012G22KT P6SM SCT015 OVC025
      TEMPO 0814/0816 BKN015
     FM082300 28012G22KT P6SM BKN035
     FM090500 27010G20KT P6SM OVC025=

USA.gov is the U.S. government's official web portal to all federal, state and local government web resources and services.